DRK401 VNKT-VQPR
Flight info
| Callsign | DRK401 |
|---|---|
| Flight time | 0h 39m |
| Altitude | 33000 |
| Route | IGRIS1D KIMTI G348 SUBSU DCT TAKTI DCT PRO |
| Aircraft | A319/M-SCDFGHIRW/HU1 |
Departure
| Time | 2025-12-30 21:57 |
|---|---|
| Airport | Tribhuvan International Airport (VNKT) |
Arrival
| Time | 2025-12-30 22:36 |
|---|---|
| Airport | Paro International Airport (VQPR) |
| Time | Latitude | Longitude | Altitude | Speed | Heading |
|---|---|---|---|---|---|
| 2025-12-30 21:33 | 27.69697 | 85.35705 | 4398 ft | 0 kts | 294° |
| 2025-12-30 21:48 | 27.69696 | 85.35707 | 4398 ft | 1 kts | 294° |
| 2025-12-30 21:49 | 27.69679 | 85.35745 | 4398 ft | 3 kts | 300° |
| 2025-12-30 21:49 | 27.69656 | 85.35782 | 4398 ft | 3 kts | 331° |
| 2025-12-30 21:50 | 27.69642 | 85.35787 | 4398 ft | 1 kts | 20° |
| 2025-12-30 21:52 | 27.69682 | 85.35806 | 4398 ft | 9 kts | 22° |
| 2025-12-30 21:52 | 27.69859 | 85.35886 | 4397 ft | 17 kts | 22° |
| 2025-12-30 21:53 | 27.70101 | 85.35997 | 4397 ft | 21 kts | 22° |
| 2025-12-30 21:53 | 27.70388 | 85.36128 | 4398 ft | 24 kts | 22° |
| 2025-12-30 21:54 | 27.70529 | 85.36191 | 4398 ft | 14 kts | 21° |
| 2025-12-30 21:54 | 27.70575 | 85.36333 | 4402 ft | 4 kts | 194° |
| 2025-12-30 21:55 | 27.70167 | 85.36146 | 4398 ft | 99 kts | 202° |
| 2025-12-30 21:55 | 27.68201 | 85.35257 | 5052 ft | 169 kts | 201° |
| 2025-12-30 21:56 | 27.66110 | 85.34090 | 6493 ft | 170 kts | 222° |
| 2025-12-30 21:56 | 27.64961 | 85.31830 | 7549 ft | 169 kts | 260° |
| 2025-12-30 21:57 | 27.65424 | 85.29004 | 8014 ft | 210 kts | 302° |
| 2025-12-30 21:57 | 27.66461 | 85.27730 | 8169 ft | 236 kts | 322° |
| 2025-12-30 21:58 | 27.69789 | 85.26676 | 9290 ft | 265 kts | 5° |
| 2025-12-30 21:59 | 27.73276 | 85.33946 | 10841 ft | 355 kts | 109° |
| 2025-12-30 21:59 | 27.72326 | 85.36556 | 11456 ft | 363 kts | 115° |
| 2025-12-30 21:59 | 27.70075 | 85.41765 | 12827 ft | 375 kts | 117° |
| 2025-12-30 22:00 | 27.67649 | 85.47087 | 14064 ft | 389 kts | 117° |
| 2025-12-30 22:00 | 27.65155 | 85.52595 | 15393 ft | 395 kts | 117° |
| 2025-12-30 22:01 | 27.62656 | 85.58197 | 16641 ft | 404 kts | 117° |
| 2025-12-30 22:01 | 27.60944 | 85.63131 | 17644 ft | 411 kts | 101° |
| 2025-12-30 22:02 | 27.60167 | 85.67335 | 18468 ft | 416 kts | 101° |
| 2025-12-30 22:03 | 27.58000 | 85.79311 | 20378 ft | 433 kts | 101° |
| 2025-12-30 22:03 | 27.56782 | 85.86002 | 21366 ft | 443 kts | 101° |
| 2025-12-30 22:04 | 27.55517 | 85.92859 | 22338 ft | 452 kts | 101° |
| 2025-12-30 22:04 | 27.54871 | 85.96352 | 22792 ft | 457 kts | 101° |
| 2025-12-30 22:05 | 27.52905 | 86.07024 | 23974 ft | 469 kts | 101° |
| 2025-12-30 22:05 | 27.51564 | 86.14298 | 24633 ft | 478 kts | 101° |
| 2025-12-30 22:05 | 27.50883 | 86.17984 | 24963 ft | 483 kts | 101° |
| 2025-12-30 22:07 | 27.47356 | 86.36903 | 26661 ft | 504 kts | 101° |
| 2025-12-30 22:09 | 27.41372 | 86.68701 | 29102 ft | 533 kts | 101° |
| 2025-12-30 22:11 | 27.34997 | 87.02082 | 31182 ft | 556 kts | 101° |
| 2025-12-30 22:13 | 27.28344 | 87.36429 | 33033 ft | 565 kts | 100° |
| 2025-12-30 22:15 | 27.21607 | 87.70721 | 33004 ft | 561 kts | 101° |
| 2025-12-30 22:17 | 27.14783 | 88.04947 | 32991 ft | 560 kts | 101° |
| 2025-12-30 22:19 | 27.07939 | 88.38884 | 32515 ft | 555 kts | 101° |
| 2025-12-30 22:21 | 27.01231 | 88.71678 | 27259 ft | 517 kts | 102° |
| 2025-12-30 22:22 | 27.01969 | 88.93953 | 23595 ft | 464 kts | 56° |
| 2025-12-30 22:23 | 27.05079 | 89.00156 | 22414 ft | 442 kts | 57° |
| 2025-12-30 22:23 | 27.07990 | 89.06007 | 21389 ft | 418 kts | 57° |
| 2025-12-30 22:23 | 27.09390 | 89.08820 | 20877 ft | 408 kts | 57° |
| 2025-12-30 22:24 | 27.13379 | 89.16840 | 19417 ft | 377 kts | 58° |
| 2025-12-30 22:24 | 27.14647 | 89.19382 | 18948 ft | 369 kts | 58° |
| 2025-12-30 22:25 | 27.16916 | 89.24414 | 17989 ft | 356 kts | 71° |
| 2025-12-30 22:25 | 27.17643 | 89.29838 | 16947 ft | 347 kts | 84° |
| 2025-12-30 22:26 | 27.18257 | 89.37782 | 15449 ft | 336 kts | 84° |
| 2025-12-30 22:27 | 27.18683 | 89.42950 | 14488 ft | 327 kts | 79° |
| 2025-12-30 22:27 | 27.19274 | 89.45395 | 14015 ft | 322 kts | 66° |
| 2025-12-30 22:28 | 27.23243 | 89.51006 | 12890 ft | 297 kts | 32° |
| 2025-12-30 22:28 | 27.26746 | 89.53190 | 12422 ft | 278 kts | 26° |
| 2025-12-30 22:29 | 27.30302 | 89.53995 | 12209 ft | 258 kts | 344° |
| 2025-12-30 22:29 | 27.31871 | 89.53111 | 11984 ft | 251 kts | 315° |
| 2025-12-30 22:29 | 27.33749 | 89.49893 | 11836 ft | 245 kts | 298° |
| 2025-12-30 22:30 | 27.36220 | 89.45010 | 10947 ft | 237 kts | 320° |
| 2025-12-30 22:31 | 27.38814 | 89.43087 | 10816 ft | 208 kts | 328° |
| 2025-12-30 22:31 | 27.41255 | 89.41441 | 10254 ft | 201 kts | 327° |
| 2025-12-30 22:32 | 27.42771 | 89.39084 | 9874 ft | 174 kts | 292° |
| 2025-12-30 22:32 | 27.43516 | 89.36670 | 9360 ft | 156 kts | 287° |
| 2025-12-30 22:33 | 27.45112 | 89.35671 | 8801 ft | 156 kts | 36° |
| 2025-12-30 22:33 | 27.45480 | 89.36739 | 8415 ft | 157 kts | 106° |
| 2025-12-30 22:33 | 27.44343 | 89.38791 | 8153 ft | 155 kts | 116° |
| 2025-12-30 22:34 | 27.42500 | 89.41589 | 7636 ft | 162 kts | 181° |
| 2025-12-30 22:35 | 27.40517 | 89.42350 | 7357 ft | 135 kts | 149° |
| 2025-12-30 22:35 | 27.39569 | 89.42957 | 7323 ft | 28 kts | 150° |
| 2025-12-30 22:36 | 27.39422 | 89.42972 | 7319 ft | 8 kts | 253° |
| 2025-12-30 22:36 | 27.39493 | 89.42897 | 7322 ft | 10 kts | 330° |
| 2025-12-30 22:36 | 27.39558 | 89.42854 | 7325 ft | 13 kts | 330° |
| 2025-12-30 22:37 | 27.39755 | 89.42729 | 7332 ft | 20 kts | 330° |
| 2025-12-30 22:37 | 27.40020 | 89.42561 | 7342 ft | 22 kts | 330° |
| 2025-12-30 22:38 | 27.40399 | 89.42320 | 7354 ft | 19 kts | 329° |
| 2025-12-30 22:39 | 27.40625 | 89.42175 | 7359 ft | 18 kts | 330° |
| 2025-12-30 22:39 | 27.40682 | 89.42106 | 7363 ft | 3 kts | 240° |
| 2025-12-30 22:40 | 27.40668 | 89.42078 | 7363 ft | 0 kts | 240° |